sensor_id;sensor_type;location;lat;lon;timestamp;P1;durP1;ratioP1;P2;durP2;ratioP2
24383;SDS011;12504;52.870;8.798;2024-03-02T00:00:07;26.13;;;11.10;;
24383;SDS011;12504;52.870;8.798;2024-03-02T00:05:09;19.73;;;11.20;;
24383;SDS011;12504;52.870;8.798;2024-03-02T00:07:36;24.00;;;10.98;;
24383;SDS011;12504;52.870;8.798;2024-03-02T00:10:07;26.60;;;12.25;;
24383;SDS011;12504;52.870;8.798;2024-03-02T00:12:37;23.63;;;10.82;;
24383;SDS011;12504;52.870;8.798;2024-03-02T00:15:33;20.33;;;10.18;;
24383;SDS011;12504;52.870;8.798;2024-03-02T00:17:52;21.92;;;11.02;;
24383;SDS011;12504;52.870;8.798;2024-03-02T00:20:20;22.33;;;11.10;;
24383;SDS011;12504;52.870;8.798;2024-03-02T00:22:47;22.13;;;10.55;;
24383;SDS011;12504;52.870;8.798;2024-03-02T00:25:13;22.60;;;9.82;;
24383;SDS011;12504;52.870;8.798;2024-03-02T00:27:39;18.83;;;10.30;;
24383;SDS011;12504;52.870;8.798;2024-03-02T00:30:26;19.80;;;10.25;;
24383;SDS011;12504;52.870;8.798;2024-03-02T00:32:53;18.33;;;9.73;;
24383;SDS011;12504;52.870;8.798;2024-03-02T00:35:19;23.73;;;10.55;;
24383;SDS011;12504;52.870;8.798;2024-03-02T00:37:46;22.00;;;10.05;;
24383;SDS011;12504;52.870;8.798;2024-03-02T00:40:12;25.30;;;10.15;;
24383;SDS011;12504;52.870;8.798;2024-03-02T00:42:39;18.25;;;10.20;;
24383;SDS011;12504;52.870;8.798;2024-03-02T00:45:09;18.60;;;9.73;;
24383;SDS011;12504;52.870;8.798;2024-03-02T00:47:38;20.13;;;9.98;;
24383;SDS011;12504;52.870;8.798;2024-03-02T00:50:05;21.73;;;9.43;;
24383;SDS011;12504;52.870;8.798;2024-03-02T00:52:31;18.35;;;9.90;;
24383;SDS011;12504;52.870;8.798;2024-03-02T00:54:58;23.40;;;10.50;;
24383;SDS011;12504;52.870;8.798;2024-03-02T00:57:24;18.77;;;9.48;;
24383;SDS011;12504;52.870;8.798;2024-03-02T00:59:51;19.85;;;8.85;;
24383;SDS011;12504;52.870;8.798;2024-03-02T01:02:17;17.30;;;8.52;;
24383;SDS011;12504;52.870;8.798;2024-03-02T01:04:45;19.52;;;9.30;;
24383;SDS011;12504;52.870;8.798;2024-03-02T01:07:12;22.58;;;10.82;;
24383;SDS011;12504;52.870;8.798;2024-03-02T01:09:38;22.55;;;9.98;;
24383;SDS011;12504;52.870;8.798;2024-03-02T01:12:06;24.33;;;10.10;;
24383;SDS011;12504;52.870;8.798;2024-03-02T01:14:32;21.00;;;9.63;;
24383;SDS011;12504;52.870;8.798;2024-03-02T01:16:58;21.42;;;9.95;;
24383;SDS011;12504;52.870;8.798;2024-03-02T01:19:24;20.50;;;9.90;;
24383;SDS011;12504;52.870;8.798;2024-03-02T01:21:50;21.77;;;9.55;;
24383;SDS011;12504;52.870;8.798;2024-03-02T01:24:17;21.25;;;9.50;;
24383;SDS011;12504;52.870;8.798;2024-03-02T01:26:43;22.85;;;10.07;;
24383;SDS011;12504;52.870;8.798;2024-03-02T01:29:09;19.25;;;9.05;;
24383;SDS011;12504;52.870;8.798;2024-03-02T01:31:36;19.33;;;9.27;;
24383;SDS011;12504;52.870;8.798;2024-03-02T01:34:03;15.80;;;8.65;;
24383;SDS011;12504;52.870;8.798;2024-03-02T01:36:29;19.40;;;9.90;;
24383;SDS011;12504;52.870;8.798;2024-03-02T01:38:55;26.48;;;9.82;;
24383;SDS011;12504;52.870;8.798;2024-03-02T01:41:21;21.83;;;9.40;;
24383;SDS011;12504;52.870;8.798;2024-03-02T01:43:47;23.35;;;10.65;;
24383;SDS011;12504;52.870;8.798;2024-03-02T01:46:13;19.60;;;9.93;;
24383;SDS011;12504;52.870;8.798;2024-03-02T01:48:39;18.83;;;9.52;;
24383;SDS011;12504;52.870;8.798;2024-03-02T01:51:06;18.67;;;9.45;;
24383;SDS011;12504;52.870;8.798;2024-03-02T01:53:32;23.48;;;10.85;;
24383;SDS011;12504;52.870;8.798;2024-03-02T01:55:58;22.65;;;9.77;;
24383;SDS011;12504;52.870;8.798;2024-03-02T01:58:24;21.42;;;10.75;;
24383;SDS011;12504;52.870;8.798;2024-03-02T02:00:50;20.98;;;10.23;;
24383;SDS011;12504;52.870;8.798;2024-03-02T02:03:16;23.33;;;10.80;;
24383;SDS011;12504;52.870;8.798;2024-03-02T02:05:42;24.42;;;10.77;;
24383;SDS011;12504;52.870;8.798;2024-03-02T02:08:09;25.83;;;11.20;;
24383;SDS011;12504;52.870;8.798;2024-03-02T02:10:36;23.98;;;10.43;;
24383;SDS011;12504;52.870;8.798;2024-03-02T02:13:02;17.80;;;9.07;;
24383;SDS011;12504;52.870;8.798;2024-03-02T02:15:29;20.80;;;10.88;;
24383;SDS011;12504;52.870;8.798;2024-03-02T02:17:56;22.30;;;10.38;;
24383;SDS011;12504;52.870;8.798;2024-03-02T02:20:23;23.70;;;10.45;;
24383;SDS011;12504;52.870;8.798;2024-03-02T02:22:59;26.02;;;11.25;;
24383;SDS011;12504;52.870;8.798;2024-03-02T02:25:26;25.98;;;10.85;;
24383;SDS011;12504;52.870;8.798;2024-03-02T02:27:52;20.83;;;10.90;;
24383;SDS011;12504;52.870;8.798;2024-03-02T02:30:30;23.05;;;11.23;;
24383;SDS011;12504;52.870;8.798;2024-03-02T02:32:56;17.30;;;9.98;;
24383;SDS011;12504;52.870;8.798;2024-03-02T02:35:23;19.88;;;9.45;;
24383;SDS011;12504;52.870;8.798;2024-03-02T02:37:52;23.52;;;11.45;;
24383;SDS011;12504;52.870;8.798;2024-03-02T02:40:18;24.42;;;10.10;;
24383;SDS011;12504;52.870;8.798;2024-03-02T02:42:46;24.35;;;10.40;;
24383;SDS011;12504;52.870;8.798;2024-03-02T02:45:12;20.35;;;10.00;;
24383;SDS011;12504;52.870;8.798;2024-03-02T02:47:40;25.95;;;10.93;;
24383;SDS011;12504;52.870;8.798;2024-03-02T02:50:09;22.85;;;11.48;;
24383;SDS011;12504;52.870;8.798;2024-03-02T02:52:36;25.10;;;11.07;;
24383;SDS011;12504;52.870;8.798;2024-03-02T02:55:05;25.73;;;11.50;;
24383;SDS011;12504;52.870;8.798;2024-03-02T02:57:32;20.20;;;10.38;;
24383;SDS011;12504;52.870;8.798;2024-03-02T03:00:00;20.67;;;9.32;;
24383;SDS011;12504;52.870;8.798;2024-03-02T03:02:30;23.50;;;11.50;;
24383;SDS011;12504;52.870;8.798;2024-03-02T03:04:56;26.48;;;10.90;;
24383;SDS011;12504;52.870;8.798;2024-03-02T03:07:22;20.23;;;10.35;;
24383;SDS011;12504;52.870;8.798;2024-03-02T03:09:49;26.83;;;11.13;;
24383;SDS011;12504;52.870;8.798;2024-03-02T03:12:15;23.50;;;10.10;;
24383;SDS011;12504;52.870;8.798;2024-03-02T03:14:41;24.38;;;11.48;;
24383;SDS011;12504;52.870;8.798;2024-03-02T03:17:07;19.95;;;10.10;;
24383;SDS011;12504;52.870;8.798;2024-03-02T03:19:33;25.60;;;11.02;;
24383;SDS011;12504;52.870;8.798;2024-03-02T03:21:59;22.65;;;10.43;;
24383;SDS011;12504;52.870;8.798;2024-03-02T03:24:26;20.98;;;10.90;;
24383;SDS011;12504;52.870;8.798;2024-03-02T03:26:52;23.75;;;11.38;;
24383;SDS011;12504;52.870;8.798;2024-03-02T03:29:18;24.38;;;10.27;;
24383;SDS011;12504;52.870;8.798;2024-03-02T03:31:44;25.58;;;11.40;;
24383;SDS011;12504;52.870;8.798;2024-03-02T03:34:10;22.02;;;11.32;;
24383;SDS011;12504;52.870;8.798;2024-03-02T03:36:40;28.17;;;12.13;;
24383;SDS011;12504;52.870;8.798;2024-03-02T03:39:06;24.92;;;11.73;;
24383;SDS011;12504;52.870;8.798;2024-03-02T03:41:32;25.48;;;10.68;;
24383;SDS011;12504;52.870;8.798;2024-03-02T03:43:59;25.05;;;11.48;;
24383;SDS011;12504;52.870;8.798;2024-03-02T03:46:25;27.27;;;12.70;;
24383;SDS011;12504;52.870;8.798;2024-03-02T03:48:51;34.30;;;14.10;;
24383;SDS011;12504;52.870;8.798;2024-03-02T03:51:17;26.85;;;12.93;;
24383;SDS011;12504;52.870;8.798;2024-03-02T03:53:43;29.55;;;12.98;;
24383;SDS011;12504;52.870;8.798;2024-03-02T03:56:09;28.48;;;14.38;;
24383;SDS011;12504;52.870;8.798;2024-03-02T03:58:36;33.17;;;13.95;;
24383;SDS011;12504;52.870;8.798;2024-03-02T04:01:04;35.40;;;14.25;;
24383;SDS011;12504;52.870;8.798;2024-03-02T04:03:31;35.53;;;14.73;;
24383;SDS011;12504;52.870;8.798;2024-03-02T04:05:57;38.78;;;16.80;;
24383;SDS011;12504;52.870;8.798;2024-03-02T04:08:23;35.42;;;15.13;;
24383;SDS011;12504;52.870;8.798;2024-03-02T04:10:49;31.35;;;14.68;;
24383;SDS011;12504;52.870;8.798;2024-03-02T04:13:15;34.42;;;14.48;;
24383;SDS011;12504;52.870;8.798;2024-03-02T04:15:42;35.38;;;14.85;;
24383;SDS011;12504;52.870;8.798;2024-03-02T04:18:08;34.97;;;13.80;;
24383;SDS011;12504;52.870;8.798;2024-03-02T04:20:34;33.63;;;14.77;;
24383;SDS011;12504;52.870;8.798;2024-03-02T04:23:00;33.72;;;15.30;;
24383;SDS011;12504;52.870;8.798;2024-03-02T04:25:26;29.30;;;12.60;;
24383;SDS011;12504;52.870;8.798;2024-03-02T04:27:53;29.73;;;14.82;;
24383;SDS011;12504;52.870;8.798;2024-03-02T04:30:20;37.72;;;15.45;;
24383;SDS011;12504;52.870;8.798;2024-03-02T04:32:46;34.83;;;15.52;;
24383;SDS011;12504;52.870;8.798;2024-03-02T04:35:14;30.77;;;13.93;;
24383;SDS011;12504;52.870;8.798;2024-03-02T04:37:40;28.23;;;13.65;;
24383;SDS011;12504;52.870;8.798;2024-03-02T04:40:06;28.48;;;15.02;;
24383;SDS011;12504;52.870;8.798;2024-03-02T04:42:35;29.58;;;13.88;;
24383;SDS011;12504;52.870;8.798;2024-03-02T04:45:01;27.42;;;13.50;;
24383;SDS011;12504;52.870;8.798;2024-03-02T04:47:28;29.33;;;14.13;;
24383;SDS011;12504;52.870;8.798;2024-03-02T04:49:54;27.90;;;13.65;;
24383;SDS011;12504;52.870;8.798;2024-03-02T04:52:20;29.50;;;12.95;;
24383;SDS011;12504;52.870;8.798;2024-03-02T04:54:46;28.27;;;12.75;;
24383;SDS011;12504;52.870;8.798;2024-03-02T04:57:31;28.63;;;13.10;;
24383;SDS011;12504;52.870;8.798;2024-03-02T04:59:57;24.73;;;12.20;;
24383;SDS011;12504;52.870;8.798;2024-03-02T05:02:23;30.52;;;13.68;;
24383;SDS011;12504;52.870;8.798;2024-03-02T05:04:49;27.58;;;12.43;;
24383;SDS011;12504;52.870;8.798;2024-03-02T05:07:15;28.83;;;12.88;;
24383;SDS011;12504;52.870;8.798;2024-03-02T05:09:42;32.22;;;14.45;;
24383;SDS011;12504;52.870;8.798;2024-03-02T05:12:09;29.25;;;12.05;;
24383;SDS011;12504;52.870;8.798;2024-03-02T05:15:05;27.65;;;12.55;;
24383;SDS011;12504;52.870;8.798;2024-03-02T05:17:32;30.90;;;12.95;;
24383;SDS011;12504;52.870;8.798;2024-03-02T05:19:58;33.15;;;12.95;;
24383;SDS011;12504;52.870;8.798;2024-03-02T05:22:24;25.98;;;11.40;;
24383;SDS011;12504;52.870;8.798;2024-03-02T05:24:50;28.40;;;12.38;;
24383;SDS011;12504;52.870;8.798;2024-03-02T05:27:16;26.63;;;13.00;;
24383;SDS011;12504;52.870;8.798;2024-03-02T05:29:42;27.60;;;12.38;;
24383;SDS011;12504;52.870;8.798;2024-03-02T05:32:08;27.35;;;12.52;;
24383;SDS011;12504;52.870;8.798;2024-03-02T05:34:35;27.48;;;12.13;;
24383;SDS011;12504;52.870;8.798;2024-03-02T05:37:01;27.58;;;12.70;;
24383;SDS011;12504;52.870;8.798;2024-03-02T05:39:27;28.45;;;12.05;;
24383;SDS011;12504;52.870;8.798;2024-03-02T05:41:53;28.85;;;13.13;;
24383;SDS011;12504;52.870;8.798;2024-03-02T05:44:19;27.35;;;13.00;;
24383;SDS011;12504;52.870;8.798;2024-03-02T05:46:46;26.83;;;12.75;;
24383;SDS011;12504;52.870;8.798;2024-03-02T05:49:13;37.20;;;14.50;;
24383;SDS011;12504;52.870;8.798;2024-03-02T05:51:39;26.45;;;13.07;;
24383;SDS011;12504;52.870;8.798;2024-03-02T05:54:06;26.33;;;13.38;;
24383;SDS011;12504;52.870;8.798;2024-03-02T05:56:33;35.17;;;14.27;;
24383;SDS011;12504;52.870;8.798;2024-03-02T05:58:59;33.03;;;14.80;;
24383;SDS011;12504;52.870;8.798;2024-03-02T06:01:41;32.63;;;14.52;;
24383;SDS011;12504;52.870;8.798;2024-03-02T06:04:08;33.13;;;15.50;;
24383;SDS011;12504;52.870;8.798;2024-03-02T06:06:36;38.47;;;16.30;;
24383;SDS011;12504;52.870;8.798;2024-03-02T06:09:02;36.15;;;16.13;;
24383;SDS011;12504;52.870;8.798;2024-03-02T06:11:38;30.55;;;14.82;;
24383;SDS011;12504;52.870;8.798;2024-03-02T06:14:05;32.55;;;14.73;;
24383;SDS011;12504;52.870;8.798;2024-03-02T06:16:32;31.52;;;15.10;;
24383;SDS011;12504;52.870;8.798;2024-03-02T06:18:58;34.58;;;16.00;;
24383;SDS011;12504;52.870;8.798;2024-03-02T06:21:25;32.03;;;14.57;;
24383;SDS011;12504;52.870;8.798;2024-03-02T06:23:51;33.00;;;14.35;;
24383;SDS011;12504;52.870;8.798;2024-03-02T06:26:17;33.85;;;15.02;;
24383;SDS011;12504;52.870;8.798;2024-03-02T06:28:43;30.52;;;15.10;;
24383;SDS011;12504;52.870;8.798;2024-03-02T06:31:09;30.33;;;14.40;;
24383;SDS011;12504;52.870;8.798;2024-03-02T06:33:36;33.17;;;15.40;;
24383;SDS011;12504;52.870;8.798;2024-03-02T06:36:03;38.10;;;16.00;;
24383;SDS011;12504;52.870;8.798;2024-03-02T06:38:29;32.65;;;15.57;;
24383;SDS011;12504;52.870;8.798;2024-03-02T06:40:59;38.10;;;16.23;;
24383;SDS011;12504;52.870;8.798;2024-03-02T06:43:26;34.53;;;15.95;;
24383;SDS011;12504;52.870;8.798;2024-03-02T06:45:52;32.65;;;15.68;;
24383;SDS011;12504;52.870;8.798;2024-03-02T06:48:18;36.75;;;16.35;;
24383;SDS011;12504;52.870;8.798;2024-03-02T06:53:14;36.47;;;14.40;;
24383;SDS011;12504;52.870;8.798;2024-03-02T06:55:43;32.90;;;15.55;;
24383;SDS011;12504;52.870;8.798;2024-03-02T06:58:11;40.90;;;15.60;;
24383;SDS011;12504;52.870;8.798;2024-03-02T07:00:37;41.78;;;16.00;;
24383;SDS011;12504;52.870;8.798;2024-03-02T07:03:04;32.15;;;14.40;;
24383;SDS011;12504;52.870;8.798;2024-03-02T07:05:30;31.40;;;14.98;;
24383;SDS011;12504;52.870;8.798;2024-03-02T07:07:56;28.08;;;14.07;;
24383;SDS011;12504;52.870;8.798;2024-03-02T07:10:22;36.25;;;15.73;;
24383;SDS011;12504;52.870;8.798;2024-03-02T07:12:48;24.17;;;12.68;;
24383;SDS011;12504;52.870;8.798;2024-03-02T07:15:14;36.10;;;14.50;;
24383;SDS011;12504;52.870;8.798;2024-03-02T07:17:52;31.13;;;16.00;;
24383;SDS011;12504;52.870;8.798;2024-03-02T07:20:19;35.25;;;15.48;;
24383;SDS011;12504;52.870;8.798;2024-03-02T07:22:45;31.75;;;13.55;;
24383;SDS011;12504;52.870;8.798;2024-03-02T07:25:11;33.70;;;15.82;;
24383;SDS011;12504;52.870;8.798;2024-03-02T07:27:38;28.48;;;13.40;;
24383;SDS011;12504;52.870;8.798;2024-03-02T07:30:04;31.15;;;14.75;;
24383;SDS011;12504;52.870;8.798;2024-03-02T07:32:30;31.63;;;14.35;;
24383;SDS011;12504;52.870;8.798;2024-03-02T07:34:57;41.22;;;16.10;;
24383;SDS011;12504;52.870;8.798;2024-03-02T07:37:23;31.45;;;12.95;;
24383;SDS011;12504;52.870;8.798;2024-03-02T07:39:50;30.17;;;15.15;;
24383;SDS011;12504;52.870;8.798;2024-03-02T07:42:16;28.58;;;14.30;;
24383;SDS011;12504;52.870;8.798;2024-03-02T07:44:43;30.55;;;13.02;;
24383;SDS011;12504;52.870;8.798;2024-03-02T07:47:10;32.08;;;14.20;;
24383;SDS011;12504;52.870;8.798;2024-03-02T07:49:36;28.98;;;12.55;;
24383;SDS011;12504;52.870;8.798;2024-03-02T07:52:02;27.77;;;13.90;;
24383;SDS011;12504;52.870;8.798;2024-03-02T07:54:29;29.48;;;13.70;;
24383;SDS011;12504;52.870;8.798;2024-03-02T07:56:55;26.80;;;13.68;;
24383;SDS011;12504;52.870;8.798;2024-03-02T07:59:21;28.73;;;13.82;;
24383;SDS011;12504;52.870;8.798;2024-03-02T08:01:48;33.30;;;14.00;;
24383;SDS011;12504;52.870;8.798;2024-03-02T08:04:15;30.42;;;14.57;;
24383;SDS011;12504;52.870;8.798;2024-03-02T08:06:41;30.40;;;14.35;;
24383;SDS011;12504;52.870;8.798;2024-03-02T08:09:08;31.15;;;15.98;;
24383;SDS011;12504;52.870;8.798;2024-03-02T08:11:36;26.25;;;13.50;;
24383;SDS011;12504;52.870;8.798;2024-03-02T08:14:05;29.80;;;14.18;;
24383;SDS011;12504;52.870;8.798;2024-03-02T08:16:31;32.13;;;14.15;;
24383;SDS011;12504;52.870;8.798;2024-03-02T08:18:58;28.33;;;12.68;;
24383;SDS011;12504;52.870;8.798;2024-03-02T08:21:25;33.45;;;14.20;;
24383;SDS011;12504;52.870;8.798;2024-03-02T08:23:58;31.77;;;13.30;;
24383;SDS011;12504;52.870;8.798;2024-03-02T08:26:24;23.73;;;12.65;;
24383;SDS011;12504;52.870;8.798;2024-03-02T08:28:53;24.77;;;13.35;;
24383;SDS011;12504;52.870;8.798;2024-03-02T08:31:22;29.23;;;15.20;;
24383;SDS011;12504;52.870;8.798;2024-03-02T08:33:48;27.40;;;13.05;;
24383;SDS011;12504;52.870;8.798;2024-03-02T08:36:15;24.80;;;12.77;;
24383;SDS011;12504;52.870;8.798;2024-03-02T08:38:42;30.77;;;14.40;;
24383;SDS011;12504;52.870;8.798;2024-03-02T08:41:09;24.02;;;12.82;;
24383;SDS011;12504;52.870;8.798;2024-03-02T08:43:38;28.55;;;12.55;;
24383;SDS011;12504;52.870;8.798;2024-03-02T08:46:06;22.90;;;13.15;;
24383;SDS011;12504;52.870;8.798;2024-03-02T08:48:32;30.10;;;13.45;;
24383;SDS011;12504;52.870;8.798;2024-03-02T08:50:58;24.67;;;11.32;;
24383;SDS011;12504;52.870;8.798;2024-03-02T08:53:24;24.02;;;12.70;;
24383;SDS011;12504;52.870;8.798;2024-03-02T08:55:50;32.15;;;15.13;;
24383;SDS011;12504;52.870;8.798;2024-03-02T08:58:17;23.17;;;11.63;;
24383;SDS011;12504;52.870;8.798;2024-03-02T09:00:43;27.42;;;11.82;;
24383;SDS011;12504;52.870;8.798;2024-03-02T09:03:09;28.55;;;11.70;;
24383;SDS011;12504;52.870;8.798;2024-03-02T09:05:37;22.02;;;10.95;;
24383;SDS011;12504;52.870;8.798;2024-03-02T09:08:03;28.40;;;13.98;;
24383;SDS011;12504;52.870;8.798;2024-03-02T09:10:29;25.98;;;12.20;;
24383;SDS011;12504;52.870;8.798;2024-03-02T09:12:55;27.20;;;12.35;;
24383;SDS011;12504;52.870;8.798;2024-03-02T09:15:21;25.35;;;12.13;;
24383;SDS011;12504;52.870;8.798;2024-03-02T09:17:47;23.83;;;10.35;;
24383;SDS011;12504;52.870;8.798;2024-03-02T09:20:13;24.95;;;11.88;;
24383;SDS011;12504;52.870;8.798;2024-03-02T09:22:39;24.38;;;12.32;;
24383;SDS011;12504;52.870;8.798;2024-03-02T09:25:06;23.67;;;11.85;;
24383;SDS011;12504;52.870;8.798;2024-03-02T09:27:36;25.95;;;11.93;;
24383;SDS011;12504;52.870;8.798;2024-03-02T09:30:03;21.92;;;11.70;;
24383;SDS011;12504;52.870;8.798;2024-03-02T09:32:30;21.80;;;11.60;;
24383;SDS011;12504;52.870;8.798;2024-03-02T09:34:55;29.90;;;11.93;;
24383;SDS011;12504;52.870;8.798;2024-03-02T09:37:23;24.65;;;11.90;;
24383;SDS011;12504;52.870;8.798;2024-03-02T09:39:51;22.60;;;10.77;;
24383;SDS011;12504;52.870;8.798;2024-03-02T09:42:17;21.42;;;10.68;;
24383;SDS011;12504;52.870;8.798;2024-03-02T09:44:46;23.77;;;11.85;;
24383;SDS011;12504;52.870;8.798;2024-03-02T09:47:14;27.07;;;13.33;;
24383;SDS011;12504;52.870;8.798;2024-03-02T09:49:40;27.25;;;11.18;;
24383;SDS011;12504;52.870;8.798;2024-03-02T09:52:06;20.98;;;10.73;;
24383;SDS011;12504;52.870;8.798;2024-03-02T09:54:33;24.58;;;11.55;;
24383;SDS011;12504;52.870;8.798;2024-03-02T09:56:59;22.80;;;10.98;;
24383;SDS011;12504;52.870;8.798;2024-03-02T09:59:27;22.30;;;11.18;;
24383;SDS011;12504;52.870;8.798;2024-03-02T10:02:00;17.98;;;9.68;;
24383;SDS011;12504;52.870;8.798;2024-03-02T10:04:26;19.80;;;9.48;;
24383;SDS011;12504;52.870;8.798;2024-03-02T10:09:34;20.60;;;10.05;;
24383;SDS011;12504;52.870;8.798;2024-03-02T10:12:05;20.63;;;10.35;;
24383;SDS011;12504;52.870;8.798;2024-03-02T10:14:31;20.70;;;10.35;;
24383;SDS011;12504;52.870;8.798;2024-03-02T10:17:04;17.30;;;9.07;;
24383;SDS011;12504;52.870;8.798;2024-03-02T10:19:30;19.23;;;9.77;;
24383;SDS011;12504;52.870;8.798;2024-03-02T10:21:58;18.20;;;9.45;;
24383;SDS011;12504;52.870;8.798;2024-03-02T10:24:24;20.48;;;9.15;;
24383;SDS011;12504;52.870;8.798;2024-03-02T10:26:52;18.40;;;9.80;;
24383;SDS011;12504;52.870;8.798;2024-03-02T10:29:18;18.85;;;8.90;;
24383;SDS011;12504;52.870;8.798;2024-03-02T10:31:45;17.98;;;8.75;;
24383;SDS011;12504;52.870;8.798;2024-03-02T10:34:12;18.77;;;8.02;;
24383;SDS011;12504;52.870;8.798;2024-03-02T10:36:42;17.25;;;8.70;;
24383;SDS011;12504;52.870;8.798;2024-03-02T10:39:08;20.80;;;9.45;;
24383;SDS011;12504;52.870;8.798;2024-03-02T10:41:35;18.48;;;8.02;;
24383;SDS011;12504;52.870;8.798;2024-03-02T10:44:01;15.50;;;7.70;;
24383;SDS011;12504;52.870;8.798;2024-03-02T10:46:29;15.23;;;8.98;;
24383;SDS011;12504;52.870;8.798;2024-03-02T10:48:59;15.48;;;7.75;;
24383;SDS011;12504;52.870;8.798;2024-03-02T10:51:26;13.73;;;7.53;;
24383;SDS011;12504;52.870;8.798;2024-03-02T10:53:53;15.10;;;8.48;;
24383;SDS011;12504;52.870;8.798;2024-03-02T10:56:27;18.92;;;7.15;;
24383;SDS011;12504;52.870;8.798;2024-03-02T10:59:36;13.38;;;6.90;;
24383;SDS011;12504;52.870;8.798;2024-03-02T11:01:43;18.55;;;7.95;;
24383;SDS011;12504;52.870;8.798;2024-03-02T11:04:13;11.30;;;6.83;;
24383;SDS011;12504;52.870;8.798;2024-03-02T11:06:43;14.52;;;7.25;;
24383;SDS011;12504;52.870;8.798;2024-03-02T11:09:11;14.68;;;7.68;;
24383;SDS011;12504;52.870;8.798;2024-03-02T11:11:40;15.85;;;7.75;;
24383;SDS011;12504;52.870;8.798;2024-03-02T11:14:10;13.30;;;7.13;;
24383;SDS011;12504;52.870;8.798;2024-03-02T11:16:39;15.10;;;7.95;;
24383;SDS011;12504;52.870;8.798;2024-03-02T11:19:07;15.60;;;7.85;;
24383;SDS011;12504;52.870;8.798;2024-03-02T11:21:34;14.27;;;8.43;;
24383;SDS011;12504;52.870;8.798;2024-03-02T11:26:47;14.20;;;6.65;;
24383;SDS011;12504;52.870;8.798;2024-03-02T11:32:22;17.10;;;8.18;;
24383;SDS011;12504;52.870;8.798;2024-03-02T11:34:49;15.48;;;7.45;;
24383;SDS011;12504;52.870;8.798;2024-03-02T11:37:19;15.43;;;7.32;;
24383;SDS011;12504;52.870;8.798;2024-03-02T11:39:49;17.52;;;9.23;;
24383;SDS011;12504;52.870;8.798;2024-03-02T11:42:16;13.73;;;7.25;;
24383;SDS011;12504;52.870;8.798;2024-03-02T11:44:43;15.15;;;7.03;;
24383;SDS011;12504;52.870;8.798;2024-03-02T11:47:11;14.75;;;6.75;;
24383;SDS011;12504;52.870;8.798;2024-03-02T11:52:06;11.57;;;6.70;;
24383;SDS011;12504;52.870;8.798;2024-03-02T11:54:33;16.60;;;7.05;;
24383;SDS011;12504;52.870;8.798;2024-03-02T11:57:01;10.07;;;5.97;;
24383;SDS011;12504;52.870;8.798;2024-03-02T11:59:27;11.35;;;6.25;;
24383;SDS011;12504;52.870;8.798;2024-03-02T12:01:54;10.20;;;5.85;;
24383;SDS011;12504;52.870;8.798;2024-03-02T12:04:23;9.30;;;5.93;;
24383;SDS011;12504;52.870;8.798;2024-03-02T12:06:56;10.73;;;5.73;;
24383;SDS011;12504;52.870;8.798;2024-03-02T12:09:25;8.88;;;5.50;;
24383;SDS011;12504;52.870;8.798;2024-03-02T12:12:02;10.07;;;5.32;;
24383;SDS011;12504;52.870;8.798;2024-03-02T12:14:32;9.63;;;5.30;;
24383;SDS011;12504;52.870;8.798;2024-03-02T12:16:58;10.27;;;5.82;;
24383;SDS011;12504;52.870;8.798;2024-03-02T12:19:24;9.90;;;5.45;;
24383;SDS011;12504;52.870;8.798;2024-03-02T12:21:51;13.35;;;6.38;;
24383;SDS011;12504;52.870;8.798;2024-03-02T12:24:17;10.75;;;5.55;;
24383;SDS011;12504;52.870;8.798;2024-03-02T12:26:43;12.13;;;6.07;;
24383;SDS011;12504;52.870;8.798;2024-03-02T12:29:09;10.88;;;5.20;;
24383;SDS011;12504;52.870;8.798;2024-03-02T12:31:38;7.68;;;5.25;;
24383;SDS011;12504;52.870;8.798;2024-03-02T12:34:04;8.85;;;4.72;;
24383;SDS011;12504;52.870;8.798;2024-03-02T12:36:31;9.30;;;4.70;;
24383;SDS011;12504;52.870;8.798;2024-03-02T12:39:03;7.78;;;4.55;;
24383;SDS011;12504;52.870;8.798;2024-03-02T12:41:28;9.13;;;5.53;;
24383;SDS011;12504;52.870;8.798;2024-03-02T12:43:54;7.35;;;4.93;;
24383;SDS011;12504;52.870;8.798;2024-03-02T12:46:21;8.27;;;4.65;;
24383;SDS011;12504;52.870;8.798;2024-03-02T12:48:47;8.48;;;5.05;;
24383;SDS011;12504;52.870;8.798;2024-03-02T12:51:13;10.30;;;5.25;;
24383;SDS011;12504;52.870;8.798;2024-03-02T12:53:39;10.07;;;5.03;;
24383;SDS011;12504;52.870;8.798;2024-03-02T12:56:07;13.55;;;5.75;;
24383;SDS011;12504;52.870;8.798;2024-03-02T12:58:38;8.88;;;5.15;;
24383;SDS011;12504;52.870;8.798;2024-03-02T13:01:06;8.30;;;5.00;;
24383;SDS011;12504;52.870;8.798;2024-03-02T13:03:41;11.30;;;6.18;;
24383;SDS011;12504;52.870;8.798;2024-03-02T13:06:07;11.18;;;5.97;;
24383;SDS011;12504;52.870;8.798;2024-03-02T13:08:33;11.77;;;6.10;;
24383;SDS011;12504;52.870;8.798;2024-03-02T13:11:00;9.05;;;5.60;;
24383;SDS011;12504;52.870;8.798;2024-03-02T13:13:26;12.27;;;6.45;;
24383;SDS011;12504;52.870;8.798;2024-03-02T13:15:55;8.95;;;4.68;;
24383;SDS011;12504;52.870;8.798;2024-03-02T13:18:21;9.98;;;5.30;;
24383;SDS011;12504;52.870;8.798;2024-03-02T13:20:47;12.13;;;5.40;;
24383;SDS011;12504;52.870;8.798;2024-03-02T13:23:13;9.98;;;5.40;;
24383;SDS011;12504;52.870;8.798;2024-03-02T13:25:39;10.60;;;5.55;;
24383;SDS011;12504;52.870;8.798;2024-03-02T13:28:05;7.25;;;4.65;;
24383;SDS011;12504;52.870;8.798;2024-03-02T13:30:32;9.52;;;6.18;;
24383;SDS011;12504;52.870;8.798;2024-03-02T13:32:58;10.25;;;6.45;;
24383;SDS011;12504;52.870;8.798;2024-03-02T13:35:23;9.23;;;5.45;;
24383;SDS011;12504;52.870;8.798;2024-03-02T13:37:50;10.30;;;5.50;;
24383;SDS011;12504;52.870;8.798;2024-03-02T13:40:16;10.95;;;6.45;;
24383;SDS011;12504;52.870;8.798;2024-03-02T13:42:45;9.95;;;5.82;;
24383;SDS011;12504;52.870;8.798;2024-03-02T13:45:13;9.02;;;5.70;;
24383;SDS011;12504;52.870;8.798;2024-03-02T13:47:39;6.45;;;4.45;;
24383;SDS011;12504;52.870;8.798;2024-03-02T13:50:04;9.00;;;4.32;;
24383;SDS011;12504;52.870;8.798;2024-03-02T13:52:32;7.97;;;5.13;;
24383;SDS011;12504;52.870;8.798;2024-03-02T13:54:58;8.18;;;4.70;;
24383;SDS011;12504;52.870;8.798;2024-03-02T13:57:24;9.82;;;4.32;;
24383;SDS011;12504;52.870;8.798;2024-03-02T13:59:50;8.20;;;4.35;;
24383;SDS011;12504;52.870;8.798;2024-03-02T14:02:17;7.85;;;4.40;;
24383;SDS011;12504;52.870;8.798;2024-03-02T14:04:43;7.95;;;4.80;;
24383;SDS011;12504;52.870;8.798;2024-03-02T14:07:09;8.23;;;4.97;;
24383;SDS011;12504;52.870;8.798;2024-03-02T14:09:38;7.10;;;4.57;;
24383;SDS011;12504;52.870;8.798;2024-03-02T14:12:04;5.50;;;3.78;;
24383;SDS011;12504;52.870;8.798;2024-03-02T14:14:31;9.30;;;4.72;;
24383;SDS011;12504;52.870;8.798;2024-03-02T14:16:57;9.13;;;4.85;;
24383;SDS011;12504;52.870;8.798;2024-03-02T14:19:29;9.52;;;4.30;;
24383;SDS011;12504;52.870;8.798;2024-03-02T14:21:56;6.35;;;4.47;;
24383;SDS011;12504;52.870;8.798;2024-03-02T14:24:21;8.48;;;5.05;;
24383;SDS011;12504;52.870;8.798;2024-03-02T14:26:51;8.23;;;4.95;;
24383;SDS011;12504;52.870;8.798;2024-03-02T14:29:18;6.53;;;4.35;;
24383;SDS011;12504;52.870;8.798;2024-03-02T14:31:44;7.78;;;4.32;;
24383;SDS011;12504;52.870;8.798;2024-03-02T14:34:13;10.05;;;4.28;;
24383;SDS011;12504;52.870;8.798;2024-03-02T14:36:39;7.13;;;3.97;;
24383;SDS011;12504;52.870;8.798;2024-03-02T14:39:06;6.28;;;3.78;;
24383;SDS011;12504;52.870;8.798;2024-03-02T14:41:35;6.20;;;4.10;;
24383;SDS011;12504;52.870;8.798;2024-03-02T14:44:01;4.82;;;3.80;;